createdAt,value
2023-12-09T00:00:00.094Z,2.69
2023-12-09T00:05:00.099Z,2.69
2023-12-09T00:10:00.084Z,2.69
2023-12-09T00:15:00.093Z,2.69
2023-12-09T00:20:00.079Z,2.75
2023-12-09T00:25:00.169Z,2.75
2023-12-09T00:30:00.148Z,2.81
2023-12-09T00:35:00.083Z,2.75
2023-12-09T00:40:00.077Z,2.81
2023-12-09T00:45:00.167Z,2.81
2023-12-09T00:50:00.077Z,2.88
2023-12-09T00:55:00.074Z,2.88
2023-12-09T01:00:00.133Z,2.94
2023-12-09T01:05:00.177Z,2.94
2023-12-09T01:10:00.079Z,2.94
2023-12-09T01:15:00.132Z,2.94
2023-12-09T01:20:00.173Z,2.94
2023-12-09T01:25:00.116Z,2.94
2023-12-09T01:30:00.095Z,3
2023-12-09T01:35:00.081Z,3
2023-12-09T01:40:00.070Z,3
2023-12-09T01:45:00.149Z,3.06
2023-12-09T01:50:00.233Z,3.13
2023-12-09T01:55:00.087Z,3.19
2023-12-09T02:00:00.090Z,3.19
2023-12-09T02:05:00.126Z,3.25
2023-12-09T02:10:00.081Z,3.19
2023-12-09T02:15:00.164Z,3.13
2023-12-09T02:20:00.065Z,2.94
2023-12-09T02:25:00.107Z,2.69
2023-12-09T02:30:00.123Z,2.56
2023-12-09T02:35:00.069Z,2.44
2023-12-09T02:40:00.074Z,2.38
2023-12-09T02:45:00.146Z,2.44
2023-12-09T02:50:00.120Z,2.44
2023-12-09T02:55:00.071Z,2.44
2023-12-09T03:00:00.104Z,2.31
2023-12-09T03:05:00.132Z,2.19
2023-12-09T03:10:00.074Z,2.06
2023-12-09T03:15:00.111Z,2.25
2023-12-09T03:20:00.071Z,2.19
2023-12-09T03:25:00.114Z,2.25
2023-12-09T03:30:00.105Z,2.44
2023-12-09T03:35:00.069Z,2.5
2023-12-09T03:40:00.073Z,2.44
2023-12-09T03:45:00.120Z,2.63
2023-12-09T03:50:00.072Z,2.63
2023-12-09T03:55:00.079Z,2.69
2023-12-09T04:00:00.124Z,2.69
2023-12-09T04:05:00.109Z,2.75
2023-12-09T04:10:00.077Z,2.81
2023-12-09T04:15:00.216Z,2.94
2023-12-09T04:20:00.145Z,3.06
2023-12-09T04:25:00.100Z,3.13
2023-12-09T04:30:00.118Z,3.25
2023-12-09T04:35:00.080Z,3.38
2023-12-09T04:40:00.073Z,3.38
2023-12-09T04:45:00.108Z,3.38
2023-12-09T04:50:00.073Z,3.38
2023-12-09T04:55:00.149Z,3.38
2023-12-09T05:00:00.101Z,3.38
2023-12-09T05:05:00.140Z,3.38
2023-12-09T05:10:00.067Z,3.38
2023-12-09T05:15:00.087Z,3.38
2023-12-09T05:20:00.068Z,3.44
2023-12-09T05:25:00.136Z,3.44
2023-12-09T05:30:00.110Z,3.44
2023-12-09T05:35:00.065Z,3.5
2023-12-09T05:40:00.118Z,3.5
2023-12-09T05:45:00.248Z,3.5
2023-12-09T05:50:00.127Z,3.5
2023-12-09T05:55:00.075Z,3.5
2023-12-09T06:00:00.226Z,3.5
2023-12-09T06:05:00.094Z,3.5
2023-12-09T06:10:00.079Z,3.56
2023-12-09T06:15:00.103Z,3.56
2023-12-09T06:20:00.118Z,3.56
2023-12-09T06:25:00.101Z,3.56
2023-12-09T06:30:00.125Z,3.56
2023-12-09T06:35:00.086Z,3.56
2023-12-09T06:40:00.070Z,3.56
2023-12-09T06:45:00.122Z,3.56
2023-12-09T06:50:00.075Z,3.56
2023-12-09T06:55:00.092Z,3.56
2023-12-09T07:00:00.100Z,3.63
2023-12-09T07:05:00.113Z,3.63
2023-12-09T07:10:00.106Z,3.63
2023-12-09T07:15:00.105Z,3.63
2023-12-09T07:20:00.077Z,3.63
2023-12-09T07:25:00.104Z,3.63
2023-12-09T07:30:00.078Z,3.69
2023-12-09T07:35:00.166Z,3.75
2023-12-09T07:40:00.073Z,3.75
2023-12-09T07:45:00.137Z,3.75
2023-12-09T07:50:00.095Z,3.81
2023-12-09T07:55:00.077Z,3.81
2023-12-09T08:00:00.145Z,3.88
2023-12-09T08:05:00.138Z,3.88
2023-12-09T08:10:00.078Z,3.94
2023-12-09T08:15:00.092Z,4
2023-12-09T08:20:00.111Z,4
2023-12-09T08:25:00.093Z,4.06
2023-12-09T08:30:00.150Z,4.13
2023-12-09T08:35:03.381Z,4.13
2023-12-09T08:40:00.077Z,4.19
2023-12-09T08:45:00.148Z,4.19
2023-12-09T08:50:00.147Z,4.25
2023-12-09T08:55:01.738Z,4.25
2023-12-09T09:00:00.086Z,4.25
2023-12-09T09:05:00.106Z,4.31
2023-12-09T09:10:00.083Z,4.38
2023-12-09T09:15:01.245Z,4.38
2023-12-09T09:20:00.090Z,4.38
2023-12-09T09:25:00.175Z,4.44
2023-12-09T09:30:00.257Z,4.5
2023-12-09T09:35:00.121Z,4.63
2023-12-09T09:40:00.075Z,4.69
2023-12-09T09:45:00.107Z,4.75
2023-12-09T09:50:00.133Z,4.75
2023-12-09T09:55:00.074Z,4.75
2023-12-09T10:00:00.124Z,4.81
2023-12-09T10:05:00.136Z,4.88
2023-12-09T10:10:00.078Z,4.88
2023-12-09T10:15:00.105Z,4.88
2023-12-09T10:20:00.208Z,4.88
2023-12-09T10:25:00.192Z,4.94
2023-12-09T10:30:00.155Z,4.94
2023-12-09T10:35:02.272Z,5
2023-12-09T10:40:00.071Z,5.06
2023-12-09T10:45:00.171Z,5.13
2023-12-09T10:50:00.473Z,5.13
2023-12-09T10:55:00.085Z,5.19
2023-12-09T11:00:00.084Z,5.19
2023-12-09T11:05:00.158Z,5.19
2023-12-09T11:10:00.079Z,5.25
2023-12-09T11:15:00.075Z,5.31
2023-12-09T11:20:00.237Z,5.38
2023-12-09T11:25:00.093Z,5.38
2023-12-09T11:30:01.901Z,5.38
2023-12-09T11:35:00.084Z,5.44
2023-12-09T11:40:00.072Z,5.5
2023-12-09T11:45:00.148Z,5.56
2023-12-09T11:50:00.078Z,5.56
2023-12-09T11:55:00.076Z,5.69
2023-12-09T12:00:00.106Z,5.88
2023-12-09T12:05:00.108Z,5.88
2023-12-09T12:10:00.066Z,6
2023-12-09T12:15:00.182Z,6.06
2023-12-09T12:20:00.078Z,6.13
2023-12-09T12:25:00.094Z,6
2023-12-09T12:30:00.083Z,5.81
2023-12-09T12:35:00.113Z,5.75
2023-12-09T12:40:00.095Z,5.75
2023-12-09T12:45:00.198Z,5.81
2023-12-09T12:50:00.189Z,5.75
2023-12-09T12:55:00.085Z,5.69
2023-12-09T13:00:03.889Z,5.63
2023-12-09T13:05:00.111Z,5.63
2023-12-09T13:10:00.082Z,5.69
2023-12-09T13:15:00.145Z,5.69
2023-12-09T13:20:00.237Z,5.69
2023-12-09T13:25:00.352Z,5.63
2023-12-09T13:30:00.108Z,5.56
2023-12-09T13:35:00.104Z,5.5
2023-12-09T13:40:00.210Z,5.44
2023-12-09T13:45:00.230Z,5.44
2023-12-09T13:50:00.072Z,5.44
2023-12-09T13:55:00.088Z,5.44
2023-12-09T14:00:00.268Z,5.44
2023-12-09T14:05:00.154Z,5.44
2023-12-09T14:10:00.093Z,5.44
2023-12-09T14:15:00.072Z,5.44
2023-12-09T14:20:00.201Z,5.44
2023-12-09T14:25:00.119Z,5.44
2023-12-09T14:30:00.073Z,5.5
2023-12-09T14:35:00.208Z,5.44
2023-12-09T14:40:00.066Z,5.44
2023-12-09T14:45:00.103Z,5.44
2023-12-09T14:50:00.168Z,5.44
2023-12-09T14:55:00.082Z,5.38
2023-12-09T15:00:00.083Z,5.31
2023-12-09T15:05:00.114Z,5.25
2023-12-09T15:10:00.071Z,5.13
2023-12-09T15:15:00.075Z,5.06
2023-12-09T15:20:00.178Z,5
2023-12-09T15:25:00.128Z,5
2023-12-09T15:30:00.082Z,4.94
2023-12-09T15:35:00.168Z,4.88
2023-12-09T15:40:00.072Z,4.81
2023-12-09T15:45:00.108Z,4.81
2023-12-09T15:50:00.100Z,4.75
2023-12-09T15:55:00.084Z,4.75
2023-12-09T16:00:00.067Z,4.75
2023-12-09T16:05:00.110Z,4.81
2023-12-09T16:10:00.142Z,4.75
2023-12-09T16:15:02.468Z,4.75
2023-12-09T16:20:00.132Z,4.69
2023-12-09T16:25:00.088Z,4.63
2023-12-09T16:30:00.130Z,4.63
2023-12-09T16:35:00.078Z,4.56
2023-12-09T16:40:00.128Z,4.56
2023-12-09T16:45:00.101Z,4.56
2023-12-09T16:50:00.099Z,4.56
2023-12-09T16:55:00.072Z,4.56
2023-12-09T17:00:00.085Z,4.63
2023-12-09T17:05:00.239Z,4.63
2023-12-09T17:10:00.077Z,4.63
2023-12-09T17:15:00.090Z,4.63
2023-12-09T17:20:00.130Z,4.56
2023-12-09T17:25:00.154Z,4.56
2023-12-09T17:30:00.086Z,4.56
2023-12-09T17:35:00.107Z,4.56
2023-12-09T17:40:00.092Z,4.56
2023-12-09T17:45:00.142Z,4.56
2023-12-09T17:50:00.116Z,4.56
2023-12-09T17:55:00.070Z,4.56
2023-12-09T18:00:00.072Z,4.56
2023-12-09T18:05:00.135Z,4.56
2023-12-09T18:10:00.079Z,4.56
2023-12-09T18:15:00.084Z,4.56
2023-12-09T18:20:00.072Z,4.56
2023-12-09T18:25:00.142Z,4.63
2023-12-09T18:30:00.081Z,4.56
2023-12-09T18:35:00.082Z,4.63
2023-12-09T18:40:00.069Z,4.63
2023-12-09T18:45:00.102Z,4.56
2023-12-09T18:50:00.128Z,4.5
2023-12-09T18:55:00.064Z,4.5
2023-12-09T19:00:00.087Z,4.5
2023-12-09T19:05:00.157Z,4.44
2023-12-09T19:10:01.709Z,4.38
2023-12-09T19:15:00.083Z,4.38
2023-12-09T19:20:00.472Z,4.38
2023-12-09T19:25:00.113Z,4.38
2023-12-09T19:30:00.075Z,4.31
2023-12-09T19:35:00.093Z,4.31
2023-12-09T19:40:00.072Z,4.25
2023-12-09T19:45:00.126Z,4.19
2023-12-09T19:50:00.117Z,4.19
2023-12-09T19:55:00.074Z,4.13
2023-12-09T20:00:00.084Z,4.13
2023-12-09T20:05:00.127Z,4.06
2023-12-09T20:10:00.066Z,4.06
2023-12-09T20:15:00.097Z,4.06
2023-12-09T20:20:00.181Z,4.06
2023-12-09T20:25:00.112Z,4.06
2023-12-09T20:30:00.072Z,4
2023-12-09T20:35:00.073Z,4
2023-12-09T20:40:00.085Z,4
2023-12-09T20:45:00.097Z,4
2023-12-09T20:50:00.147Z,4
2023-12-09T20:55:00.075Z,4
2023-12-09T21:00:00.084Z,4
2023-12-09T21:05:00.129Z,4
2023-12-09T21:10:00.064Z,4
2023-12-09T21:15:00.121Z,3.94
2023-12-09T21:20:00.139Z,3.94
2023-12-09T21:25:00.108Z,4
2023-12-09T21:30:00.093Z,4
2023-12-09T21:35:00.087Z,4.06
2023-12-09T21:40:00.682Z,4.06
2023-12-09T21:45:00.147Z,4.06
2023-12-09T21:50:00.135Z,4.06
2023-12-09T21:55:00.090Z,4.13
2023-12-09T22:00:00.089Z,4.06
2023-12-09T22:05:00.186Z,4.06
2023-12-09T22:10:00.072Z,4.13
2023-12-09T22:15:00.088Z,4.13
2023-12-09T22:20:00.095Z,4.13
2023-12-09T22:25:00.125Z,4.13
2023-12-09T22:30:00.078Z,4.19
2023-12-09T22:35:00.188Z,4.19
2023-12-09T22:40:00.146Z,4.25
2023-12-09T22:45:00.088Z,4.31
2023-12-09T22:50:00.273Z,4.38
2023-12-09T22:55:00.072Z,4.38
2023-12-09T23:00:00.124Z,4.44
2023-12-09T23:05:00.112Z,4.5
2023-12-09T23:10:00.172Z,4.56
2023-12-09T23:15:00.070Z,4.56
2023-12-09T23:20:00.069Z,4.63
2023-12-09T23:25:00.125Z,4.63
2023-12-09T23:30:00.093Z,4.75
2023-12-09T23:35:00.078Z,4.94
2023-12-09T23:40:00.081Z,5.06
2023-12-09T23:45:00.102Z,5.13
2023-12-09T23:50:00.104Z,5.25
2023-12-09T23:55:00.084Z,5.38
